createdAt,value
2023-02-06T00:00:39.415Z,24.20
2023-02-06T00:03:06.044Z,30.43
2023-02-06T00:05:33.454Z,24.10
2023-02-06T00:08:00.610Z,31.70
2023-02-06T00:10:27.769Z,22.13
2023-02-06T00:12:54.658Z,15.87
2023-02-06T00:15:21.318Z,20.30
2023-02-06T00:17:48.008Z,22.10
2023-02-06T00:20:15.183Z,23.37
2023-02-06T00:22:41.804Z,15.77
2023-02-06T00:25:08.654Z,17.97
2023-02-06T00:27:35.615Z,19.10
2023-02-06T00:30:02.236Z,20.37
2023-02-06T00:32:28.845Z,17.70
2023-02-06T00:34:55.870Z,15.63
2023-02-06T00:37:22.508Z,17.03
2023-02-06T00:39:49.008Z,21.13
2023-02-06T00:42:15.610Z,19.10
2023-02-06T00:44:42.346Z,18.87
2023-02-06T00:47:08.910Z,20.33
2023-02-06T00:49:35.432Z,19.30
2023-02-06T00:52:02.286Z,22.03
2023-02-06T00:54:28.892Z,22.57
2023-02-06T00:56:55.761Z,31.03
2023-02-06T00:59:22.507Z,27.47
2023-02-06T01:01:49.199Z,18.07
2023-02-06T01:04:15.782Z,15.63
2023-02-06T01:06:42.591Z,22.20
2023-02-06T01:09:09.253Z,13.80
2023-02-06T01:11:38.645Z,22.03
2023-02-06T01:14:05.309Z,18.47
2023-02-06T01:16:32.042Z,17.57
2023-02-06T01:18:58.572Z,20.60
2023-02-06T01:21:25.267Z,26.10
2023-02-06T01:23:53.157Z,21.57
2023-02-06T01:26:22.894Z,24.17
2023-02-06T01:28:50.287Z,16.47
2023-02-06T01:31:20.695Z,15.40
2023-02-06T01:33:50.057Z,20.20
2023-02-06T01:36:17.867Z,22.07
2023-02-06T01:38:44.641Z,14.47
2023-02-06T01:41:13.138Z,19.10
2023-02-06T01:43:43.064Z,14.60
2023-02-06T01:46:10.115Z,14.80
2023-02-06T01:48:54.980Z,20.60
2023-02-06T01:51:23.871Z,19.03
2023-02-06T01:53:52.435Z,16.67
2023-02-06T01:56:19.753Z,16.17
2023-02-06T01:58:50.229Z,19.77
2023-02-06T02:01:17.245Z,20.93
2023-02-06T02:03:47.478Z,18.93
2023-02-06T02:06:16.903Z,20.87
2023-02-06T02:08:45.895Z,24.90
2023-02-06T02:11:17.495Z,26.10
2023-02-06T02:13:44.349Z,23.50
2023-02-06T02:16:41.959Z,17.23
2023-02-06T02:19:20.814Z,17.90
2023-02-06T02:22:05.967Z,26.60
2023-02-06T02:24:35.623Z,21.43
2023-02-06T02:27:43.306Z,23.93
2023-02-06T02:30:16.400Z,18.93
2023-02-06T02:33:14.024Z,20.60
2023-02-06T02:35:47.131Z,14.70
2023-02-06T02:38:33.336Z,15.87
2023-02-06T02:41:18.916Z,19.23
2023-02-06T02:43:51.938Z,19.23
2023-02-06T02:46:21.528Z,23.93
2023-02-06T02:48:50.366Z,22.30
2023-02-06T02:51:17.282Z,26.67
2023-02-06T02:53:44.467Z,27.77
2023-02-06T02:56:15.102Z,18.97
2023-02-06T02:58:42.137Z,23.17
2023-02-06T03:01:11.651Z,18.77
2023-02-06T03:03:40.679Z,18.07
2023-02-06T03:06:32.244Z,19.60
2023-02-06T03:09:16.830Z,21.03
2023-02-06T03:12:04.141Z,13.90
2023-02-06T03:14:35.205Z,19.60
2023-02-06T03:17:10.056Z,19.10
2023-02-06T03:19:41.512Z,19.13
2023-02-06T03:22:08.358Z,16.73
2023-02-06T03:24:38.464Z,13.10
2023-02-06T03:27:08.380Z,14.60
2023-02-06T03:29:36.045Z,14.67
2023-02-06T03:32:11.227Z,17.97
2023-02-06T03:34:46.999Z,16.93
2023-02-06T03:37:13.778Z,15.23
2023-02-06T03:39:40.610Z,27.30
2023-02-06T03:42:07.972Z,19.67
2023-02-06T03:44:37.047Z,23.30
2023-02-06T03:47:05.242Z,22.20
2023-02-06T03:49:33.046Z,17.97
2023-02-06T03:52:01.532Z,18.03
2023-02-06T03:54:29.301Z,19.30
2023-02-06T03:57:01.960Z,21.53
2023-02-06T03:59:28.834Z,26.67
2023-02-06T04:01:58.167Z,22.70
2023-02-06T04:04:29.363Z,21.00
2023-02-06T04:07:02.143Z,18.83
2023-02-06T04:09:28.848Z,17.13
2023-02-06T04:11:55.431Z,19.77
2023-02-06T04:14:22.033Z,15.83
2023-02-06T04:16:48.644Z,17.70
2023-02-06T04:19:15.442Z,14.33
2023-02-06T04:21:42.203Z,15.43
2023-02-06T04:24:09.637Z,18.33
2023-02-06T04:26:36.438Z,12.17
2023-02-06T04:29:03.187Z,19.57
2023-02-06T04:31:29.930Z,21.77
2023-02-06T04:33:56.516Z,15.97
2023-02-06T04:36:23.077Z,15.57
2023-02-06T04:38:49.596Z,17.83
2023-02-06T04:41:16.271Z,15.97
2023-02-06T04:43:43.336Z,17.40
2023-02-06T04:46:09.946Z,16.50
2023-02-06T04:48:37.512Z,17.80
2023-02-06T04:51:04.553Z,19.10
2023-02-06T04:53:31.201Z,16.50
2023-02-06T04:56:10.741Z,15.70
2023-02-06T04:58:38.199Z,19.13
2023-02-06T05:01:05.581Z,17.80
2023-02-06T05:03:32.526Z,23.97
2023-02-06T05:06:00.678Z,25.70
2023-02-06T05:08:27.623Z,17.97
2023-02-06T05:10:55.186Z,18.50
2023-02-06T05:13:21.953Z,22.70
2023-02-06T05:15:48.634Z,24.80
2023-02-06T05:18:15.719Z,20.97
2023-02-06T05:20:44.253Z,20.67
2023-02-06T05:23:10.754Z,19.80
2023-02-06T05:25:37.911Z,16.40
2023-02-06T05:28:06.676Z,19.13
2023-02-06T05:30:34.630Z,19.17
2023-02-06T05:33:02.060Z,22.53
2023-02-06T05:35:28.744Z,15.93
2023-02-06T05:37:55.380Z,17.43
2023-02-06T05:40:22.180Z,18.73
2023-02-06T05:42:48.869Z,24.50
2023-02-06T05:45:15.617Z,22.60
2023-02-06T05:47:42.663Z,18.40
2023-02-06T05:50:09.450Z,21.53
2023-02-06T05:52:36.153Z,21.80
2023-02-06T05:55:02.725Z,20.70
2023-02-06T05:57:29.497Z,19.63
2023-02-06T05:59:56.151Z,17.47
2023-02-06T06:02:22.842Z,14.63
2023-02-06T06:04:49.377Z,19.70
2023-02-06T06:07:16.702Z,27.10
2023-02-06T06:09:43.384Z,20.97
2023-02-06T06:12:10.114Z,17.77
2023-02-06T06:14:36.692Z,20.40
2023-02-06T06:17:03.281Z,19.50
2023-02-06T06:19:29.865Z,20.47
2023-02-06T06:21:58.264Z,25.27
2023-02-06T06:24:26.151Z,22.03
2023-02-06T06:26:52.886Z,17.07
2023-02-06T06:29:19.415Z,20.77
2023-02-06T06:31:46.206Z,31.43
2023-02-06T06:34:12.837Z,22.83
2023-02-06T06:36:39.566Z,23.33
2023-02-06T06:39:06.192Z,22.13
2023-02-06T06:41:32.723Z,23.37
2023-02-06T06:43:59.558Z,40.67
2023-02-06T06:46:26.657Z,57.10
2023-02-06T06:48:53.172Z,62.60
2023-02-06T06:51:20.423Z,68.07
2023-02-06T06:53:47.120Z,58.40
2023-02-06T06:56:14.733Z,55.53
2023-02-06T06:58:42.045Z,54.77
2023-02-06T07:01:08.846Z,74.67
2023-02-06T07:03:36.833Z,54.90
2023-02-06T07:06:04.494Z,59.97
2023-02-06T07:08:31.663Z,72.37
2023-02-06T07:10:58.392Z,68.30
2023-02-06T07:13:25.270Z,65.77
2023-02-06T07:15:51.979Z,69.07
2023-02-06T07:18:18.665Z,76.37
2023-02-06T07:20:45.209Z,74.77
2023-02-06T07:23:11.762Z,85.03
2023-02-06T07:25:38.530Z,77.10
2023-02-06T07:28:05.346Z,85.53
2023-02-06T07:30:31.924Z,74.90
2023-02-06T07:32:58.692Z,65.43
2023-02-06T07:35:25.364Z,72.53
2023-02-06T07:37:55.211Z,65.10
2023-02-06T07:40:22.201Z,66.00
2023-02-06T07:42:48.856Z,62.33
2023-02-06T07:45:15.492Z,55.97
2023-02-06T07:47:43.144Z,46.50
2023-02-06T07:50:10.626Z,38.70
2023-02-06T07:52:37.532Z,44.87
2023-02-06T07:55:04.639Z,57.37
2023-02-06T07:57:31.370Z,52.77
2023-02-06T07:59:58.012Z,38.50
2023-02-06T08:02:24.996Z,46.47
2023-02-06T08:04:51.496Z,41.17
2023-02-06T08:07:18.682Z,41.07
2023-02-06T08:09:45.357Z,40.17
2023-02-06T08:12:12.152Z,41.73
2023-02-06T08:14:38.828Z,44.23
2023-02-06T08:17:05.354Z,47.67
2023-02-06T08:19:32.075Z,42.77
2023-02-06T08:21:58.730Z,38.53
2023-02-06T08:24:25.782Z,42.33
2023-02-06T08:26:52.542Z,40.90
2023-02-06T08:29:19.450Z,39.87
2023-02-06T08:31:46.414Z,38.63
2023-02-06T08:34:14.266Z,35.83
2023-02-06T08:36:43.390Z,40.27
2023-02-06T08:39:13.344Z,39.77
2023-02-06T08:41:41.329Z,33.10
2023-02-06T08:44:14.385Z,31.90
2023-02-06T08:46:41.597Z,37.97
2023-02-06T08:49:19.385Z,40.10
2023-02-06T08:51:46.380Z,31.77
2023-02-06T08:54:15.849Z,36.30
2023-02-06T08:56:43.033Z,35.47
2023-02-06T08:59:11.013Z,33.10
2023-02-06T09:01:38.474Z,33.37
2023-02-06T09:04:08.206Z,31.60
2023-02-06T09:06:36.572Z,43.07
2023-02-06T09:09:04.332Z,36.87
2023-02-06T09:11:31.506Z,42.97
2023-02-06T09:13:59.704Z,46.30
2023-02-06T09:16:27.734Z,49.40
2023-02-06T09:18:55.189Z,57.57
2023-02-06T09:21:26.017Z,53.93
2023-02-06T09:23:55.528Z,56.97
2023-02-06T09:26:24.263Z,59.17
2023-02-06T09:28:54.684Z,69.30
2023-02-06T09:31:21.326Z,60.57
2023-02-06T09:33:48.257Z,61.17
2023-02-06T09:36:17.128Z,61.63
2023-02-06T09:38:46.350Z,62.93
2023-02-06T09:41:24.538Z,68.90
2023-02-06T09:43:54.065Z,62.30
2023-02-06T09:46:27.332Z,68.07
2023-02-06T09:48:55.902Z,62.20
2023-02-06T09:51:44.495Z,68.87
2023-02-06T09:54:49.961Z,75.30
2023-02-06T09:57:37.744Z,70.57
2023-02-06T10:00:15.068Z,68.47
2023-02-06T10:03:19.411Z,63.77
2023-02-06T10:05:48.896Z,56.43
2023-02-06T10:08:21.594Z,61.17
2023-02-06T10:10:56.822Z,65.30
2023-02-06T10:13:31.164Z,67.30
2023-02-06T10:16:01.981Z,67.37
2023-02-06T10:18:53.237Z,66.07
2023-02-06T10:21:28.590Z,57.60
2023-02-06T10:24:11.444Z,58.90
2023-02-06T10:26:40.574Z,57.67
2023-02-06T10:29:16.812Z,55.53
2023-02-06T10:31:58.782Z,64.50
2023-02-06T10:34:34.130Z,59.87
2023-02-06T10:37:00.738Z,50.57
2023-02-06T10:39:36.294Z,54.73
2023-02-06T10:42:05.508Z,53.00
2023-02-06T10:44:40.322Z,54.87
2023-02-06T10:47:19.693Z,59.37
2023-02-06T10:49:49.920Z,55.40
2023-02-06T10:52:34.204Z,53.20
2023-02-06T10:55:05.412Z,55.47
2023-02-06T10:57:32.288Z,58.03
2023-02-06T11:00:00.945Z,55.80
2023-02-06T11:02:32.899Z,49.87
2023-02-06T11:05:00.991Z,42.40
2023-02-06T11:07:35.330Z,44.70
2023-02-06T11:10:02.154Z,50.70
2023-02-06T11:12:36.020Z,36.93
2023-02-06T11:15:08.290Z,40.77
2023-02-06T11:17:35.418Z,40.00
2023-02-06T11:20:21.862Z,39.40
2023-02-06T11:22:53.059Z,35.13
2023-02-06T11:25:31.435Z,35.47
2023-02-06T11:27:59.039Z,34.50
2023-02-06T11:30:30.525Z,40.27
2023-02-06T11:33:04.561Z,53.03
2023-02-06T11:35:35.734Z,51.77
2023-02-06T11:38:13.817Z,59.00
2023-02-06T11:40:40.500Z,74.00
2023-02-06T11:43:13.420Z,70.77
2023-02-06T11:45:41.269Z,67.37
2023-02-06T11:48:30.729Z,66.53
2023-02-06T11:50:57.698Z,86.20
2023-02-06T11:53:24.283Z,65.23
2023-02-06T11:56:14.225Z,69.60
2023-02-06T11:58:40.859Z,64.47
2023-02-06T12:01:09.715Z,55.07
2023-02-06T12:03:43.560Z,55.63
2023-02-06T12:06:10.388Z,36.70
2023-02-06T12:08:49.770Z,41.23
2023-02-06T12:11:30.866Z,32.17
2023-02-06T12:14:09.903Z,33.67
2023-02-06T12:16:39.116Z,27.27
2023-02-06T12:19:11.721Z,27.20
2023-02-06T12:21:42.991Z,22.87
2023-02-06T12:24:25.737Z,21.13
2023-02-06T12:26:53.766Z,19.60
2023-02-06T12:29:24.587Z,19.57
2023-02-06T12:32:25.155Z,22.13
2023-02-06T12:35:02.274Z,22.93
2023-02-06T12:37:47.128Z,15.10
2023-02-06T12:40:38.336Z,19.60
2023-02-06T12:43:12.530Z,22.80
2023-02-06T12:45:50.004Z,20.87
2023-02-06T12:48:22.973Z,20.77
2023-02-06T12:51:09.895Z,18.87
2023-02-06T12:53:58.469Z,16.80
2023-02-06T12:56:33.786Z,21.67
2023-02-06T12:59:09.468Z,18.93
2023-02-06T13:02:01.073Z,19.27
2023-02-06T13:04:33.258Z,21.10
2023-02-06T13:07:06.739Z,22.53
2023-02-06T13:09:36.315Z,15.30
2023-02-06T13:12:16.752Z,17.23
2023-02-06T13:14:52.469Z,22.73
2023-02-06T13:17:28.005Z,19.77
2023-02-06T13:20:10.145Z,17.67
2023-02-06T13:22:53.775Z,25.90
2023-02-06T13:25:28.082Z,22.40
2023-02-06T13:28:15.285Z,25.13
2023-02-06T13:30:47.141Z,14.53
2023-02-06T13:33:20.371Z,20.73
2023-02-06T13:35:59.219Z,17.53
2023-02-06T13:38:29.078Z,20.80
2023-02-06T13:41:17.039Z,17.90
2023-02-06T13:43:56.172Z,15.50
2023-02-06T13:46:51.673Z,19.37
2023-02-06T13:49:24.397Z,16.03
2023-02-06T13:52:18.429Z,19.77
2023-02-06T13:55:28.678Z,21.73
2023-02-06T13:58:13.543Z,22.93
2023-02-06T14:00:42.845Z,28.70
2023-02-06T14:03:32.373Z,23.70
2023-02-06T14:06:11.471Z,30.33
2023-02-06T14:08:46.844Z,28.77
2023-02-06T14:11:57.504Z,29.70
2023-02-06T14:14:43.906Z,29.97
2023-02-06T14:17:35.378Z,24.80
2023-02-06T14:20:21.682Z,24.33
2023-02-06T14:23:21.938Z,23.10
2023-02-06T14:26:12.392Z,22.50
2023-02-06T14:29:03.223Z,19.60
2023-02-06T14:32:02.157Z,23.60
2023-02-06T14:34:42.407Z,20.73
2023-02-06T14:37:18.112Z,27.43
2023-02-06T14:39:53.569Z,21.13
2023-02-06T14:42:32.502Z,21.20
2023-02-06T14:45:03.190Z,23.37
2023-02-06T14:47:33.361Z,20.93
2023-02-06T14:50:00.733Z,25.90
2023-02-06T14:52:29.519Z,25.83
2023-02-06T14:54:56.479Z,25.00
2023-02-06T14:57:26.137Z,29.23
2023-02-06T14:59:57.232Z,28.80
2023-02-06T15:02:32.148Z,24.77
2023-02-06T15:04:59.690Z,24.47
2023-02-06T15:07:33.140Z,20.87
2023-02-06T15:10:25.735Z,17.10
2023-02-06T15:12:53.493Z,20.93
2023-02-06T15:15:23.083Z,24.67
2023-02-06T15:18:04.684Z,22.67
2023-02-06T15:20:40.528Z,17.63
2023-02-06T15:23:21.094Z,23.90
2023-02-06T15:26:01.779Z,31.73
2023-02-06T15:28:30.894Z,31.07
2023-02-06T15:30:59.217Z,24.13
2023-02-06T15:33:28.502Z,19.30
2023-02-06T15:35:56.942Z,21.90
2023-02-06T15:38:25.270Z,24.17
2023-02-06T15:40:57.016Z,24.57
2023-02-06T15:43:25.749Z,22.20
2023-02-06T15:45:55.688Z,23.13
2023-02-06T15:48:39.531Z,27.37
2023-02-06T15:51:26.928Z,22.07
2023-02-06T15:54:16.313Z,24.43
2023-02-06T15:56:43.702Z,19.63
2023-02-06T15:59:22.162Z,25.07
2023-02-06T16:01:49.260Z,21.00
2023-02-06T16:04:20.397Z,26.87
2023-02-06T16:06:47.406Z,25.43
2023-02-06T16:09:20.194Z,19.67
2023-02-06T16:11:51.573Z,17.43
2023-02-06T16:14:22.504Z,15.67
2023-02-06T16:16:57.646Z,17.07
2023-02-06T16:19:34.995Z,17.57
2023-02-06T16:22:26.782Z,16.20
2023-02-06T16:24:56.148Z,18.37
2023-02-06T16:27:27.523Z,22.13
2023-02-06T16:29:55.992Z,15.17
2023-02-06T16:32:29.648Z,20.03
2023-02-06T16:34:56.282Z,18.17
2023-02-06T16:37:24.164Z,14.60
2023-02-06T16:39:51.264Z,16.70
2023-02-06T16:42:23.061Z,16.23
2023-02-06T16:44:58.541Z,18.23
2023-02-06T16:47:25.168Z,14.00
2023-02-06T16:49:52.349Z,12.63
2023-02-06T16:52:25.890Z,13.77
2023-02-06T16:54:53.661Z,13.20
2023-02-06T16:57:23.308Z,18.43
2023-02-06T16:59:50.285Z,12.70
2023-02-06T17:02:17.490Z,11.97
2023-02-06T17:04:44.223Z,13.93
2023-02-06T17:07:17.142Z,15.00
2023-02-06T17:09:44.724Z,9.17
2023-02-06T17:12:14.082Z,12.10
2023-02-06T17:14:42.805Z,8.70
2023-02-06T17:17:11.652Z,13.83
2023-02-06T17:19:38.840Z,12.97
2023-02-06T17:22:06.376Z,11.90
2023-02-06T17:24:34.124Z,11.43
2023-02-06T17:27:01.571Z,10.23
2023-02-06T17:29:29.342Z,13.57
2023-02-06T17:31:55.884Z,14.10
2023-02-06T17:34:23.626Z,14.33
2023-02-06T17:36:50.351Z,14.67
2023-02-06T17:39:16.971Z,19.10
2023-02-06T17:41:44.028Z,17.67
2023-02-06T17:44:11.834Z,14.57
2023-02-06T17:46:39.084Z,12.47
2023-02-06T17:49:05.949Z,16.07
2023-02-06T17:51:32.580Z,14.77
2023-02-06T17:53:59.450Z,16.67
2023-02-06T17:56:26.019Z,12.17
2023-02-06T17:58:52.646Z,14.47
2023-02-06T18:01:22.179Z,18.77
2023-02-06T18:03:48.956Z,15.50
2023-02-06T18:06:15.813Z,13.07
2023-02-06T18:08:43.350Z,18.07
2023-02-06T18:11:18.606Z,13.37
2023-02-06T18:13:47.334Z,14.10
2023-02-06T18:16:16.459Z,15.90
2023-02-06T18:18:43.823Z,13.77
2023-02-06T18:21:10.545Z,16.63
2023-02-06T18:23:37.873Z,15.63
2023-02-06T18:26:07.412Z,17.60
2023-02-06T18:28:35.563Z,18.93
2023-02-06T18:31:02.666Z,14.47
2023-02-06T18:33:31.345Z,19.20
2023-02-06T18:35:58.319Z,17.27
2023-02-06T18:38:25.333Z,14.73
2023-02-06T18:40:51.917Z,13.43
2023-02-06T18:43:18.494Z,14.23
2023-02-06T18:45:45.303Z,16.93
2023-02-06T18:48:13.524Z,19.93
2023-02-06T18:50:42.461Z,15.90
2023-02-06T18:53:09.730Z,17.27
2023-02-06T18:55:37.320Z,19.03
2023-02-06T18:58:05.690Z,16.87
2023-02-06T19:00:35.251Z,16.80
2023-02-06T19:03:02.154Z,21.27
2023-02-06T19:05:30.931Z,20.53
2023-02-06T19:07:57.599Z,20.13
2023-02-06T19:10:25.941Z,17.50
2023-02-06T19:12:52.628Z,20.87
2023-02-06T19:15:19.568Z,22.40
2023-02-06T19:17:46.262Z,18.07
2023-02-06T19:20:12.966Z,14.53
2023-02-06T19:22:40.017Z,20.53
2023-02-06T19:25:11.719Z,19.83
2023-02-06T19:27:39.470Z,23.53
2023-02-06T19:30:07.877Z,19.80
2023-02-06T19:32:34.774Z,15.97
2023-02-06T19:35:01.588Z,17.97
2023-02-06T19:37:28.230Z,21.93
2023-02-06T19:39:55.150Z,16.33
2023-02-06T19:42:21.798Z,20.40
2023-02-06T19:44:53.192Z,15.20
2023-02-06T19:47:19.889Z,15.90
2023-02-06T19:49:46.591Z,17.27
2023-02-06T19:52:14.583Z,15.80
2023-02-06T19:54:41.189Z,16.67
2023-02-06T19:57:07.826Z,19.83
2023-02-06T19:59:34.405Z,22.50
2023-02-06T20:02:02.447Z,15.67
2023-02-06T20:04:34.708Z,22.20
2023-02-06T20:07:01.603Z,16.30
2023-02-06T20:09:29.285Z,24.83
2023-02-06T20:11:56.583Z,17.23
2023-02-06T20:14:23.990Z,16.70
2023-02-06T20:16:50.730Z,17.67
2023-02-06T20:19:24.725Z,22.00
2023-02-06T20:21:54.324Z,23.23
2023-02-06T20:24:23.926Z,20.53
2023-02-06T20:26:55.901Z,21.70
2023-02-06T20:29:35.555Z,23.87
2023-02-06T20:32:03.865Z,19.50
2023-02-06T20:34:31.156Z,21.20
2023-02-06T20:36:58.174Z,27.97
2023-02-06T20:39:26.217Z,25.40
2023-02-06T20:41:53.734Z,20.67
2023-02-06T20:44:21.006Z,23.80
2023-02-06T20:46:48.598Z,21.13
2023-02-06T20:49:23.577Z,21.33
2023-02-06T20:51:50.794Z,24.33
2023-02-06T20:54:18.840Z,23.77
2023-02-06T20:56:46.412Z,28.53
2023-02-06T20:59:15.366Z,22.80
2023-02-06T21:01:42.760Z,22.47
2023-02-06T21:04:12.317Z,25.17
2023-02-06T21:06:39.682Z,25.87
2023-02-06T21:09:07.626Z,26.17
2023-02-06T21:11:44.419Z,22.60
2023-02-06T21:14:11.890Z,21.97
2023-02-06T21:16:39.477Z,23.07
2023-02-06T21:19:07.922Z,23.43
2023-02-06T21:21:36.460Z,25.17
2023-02-06T21:24:03.409Z,23.47
2023-02-06T21:26:30.217Z,23.03
2023-02-06T21:28:58.942Z,22.67
2023-02-06T21:31:37.549Z,19.67
2023-02-06T21:34:09.109Z,25.63
2023-02-06T21:36:37.856Z,22.00
2023-02-06T21:39:05.731Z,24.93
2023-02-06T21:41:32.879Z,20.80
2023-02-06T21:43:59.599Z,24.10
2023-02-06T21:46:26.455Z,20.77
2023-02-06T21:48:53.936Z,23.00
2023-02-06T21:51:21.645Z,22.17
2023-02-06T21:53:48.335Z,16.70
2023-02-06T21:56:22.517Z,22.37
2023-02-06T21:58:50.433Z,24.87
2023-02-06T22:01:22.967Z,17.93
2023-02-06T22:03:49.624Z,21.43
2023-02-06T22:06:16.954Z,22.90
2023-02-06T22:08:45.476Z,18.93
2023-02-06T22:11:26.982Z,19.67
2023-02-06T22:13:57.926Z,19.90
2023-02-06T22:16:25.303Z,19.57
2023-02-06T22:18:51.911Z,17.30
2023-02-06T22:21:21.545Z,20.03
2023-02-06T22:23:49.446Z,20.60
2023-02-06T22:26:18.015Z,21.17
2023-02-06T22:28:45.035Z,20.30
2023-02-06T22:31:15.613Z,18.10
2023-02-06T22:33:42.888Z,23.03
2023-02-06T22:36:11.930Z,18.63
2023-02-06T22:38:39.200Z,21.83
2023-02-06T22:41:07.711Z,20.50
2023-02-06T22:43:37.798Z,19.97
2023-02-06T22:46:05.767Z,22.03
2023-02-06T22:48:33.201Z,22.23
2023-02-06T22:51:07.495Z,25.47
2023-02-06T22:53:34.219Z,29.67
2023-02-06T22:56:26.430Z,24.43
2023-02-06T22:58:54.568Z,23.17
2023-02-06T23:01:23.758Z,24.50
2023-02-06T23:03:54.731Z,27.57
2023-02-06T23:06:22.140Z,29.23
2023-02-06T23:08:48.828Z,30.00
2023-02-06T23:11:15.848Z,28.77
2023-02-06T23:13:42.948Z,28.57
2023-02-06T23:16:10.183Z,28.60
2023-02-06T23:18:37.585Z,30.63
2023-02-06T23:21:08.031Z,28.30
2023-02-06T23:23:34.875Z,31.03
2023-02-06T23:26:01.547Z,33.33
2023-02-06T23:28:28.457Z,31.57
2023-02-06T23:30:55.502Z,33.37
2023-02-06T23:33:22.163Z,31.23
2023-02-06T23:35:48.932Z,30.73
2023-02-06T23:38:15.689Z,31.17
2023-02-06T23:40:42.250Z,34.57
2023-02-06T23:43:09.687Z,29.23
2023-02-06T23:45:37.462Z,31.87
2023-02-06T23:48:04.446Z,31.07
2023-02-06T23:50:30.974Z,30.83
2023-02-06T23:52:57.688Z,31.17
2023-02-06T23:55:27.977Z,30.40
2023-02-06T23:57:54.743Z,28.13
